Time;durP1;ratioP1;P1;durP2;ratioP2;P2;SDS_P1;SDS_P2;PMS_P1;PMS_P2;Temp;Humidity;BMP_temperature;BMP_pressure;BME280_temperature;BME280_humidity;BME280_pressure;Samples;Min_cycle;Max_cycle;Signal;HPM_P1;HPM_P2
2022/10/08 00:00:13;;;;;;;;;;;;;;;21.84;56.20;101618.66;7287019;19;153873;-58
2022/10/08 00:02:39;;;;;;;;;;;;;;;21.84;56.43;101624.28;7281126;19;152221;-57
2022/10/08 00:05:06;;;;;;;;;;;;;;;21.83;56.08;101619.78;7279383;19;153424;-58
2022/10/08 00:07:33;;;;;;;;;;;;;;;21.82;56.42;101615.28;7281576;19;151874;-58
2022/10/08 00:09:59;;;;;;;;;;;;;;;21.81;56.58;101622.03;7282442;19;153355;-58
2022/10/08 00:12:26;;;;;;;;;;;;;;;21.80;56.46;101623.22;7281297;19;153399;-58
2022/10/08 00:14:52;;;;;;;;;;;;;;;21.80;56.59;101628.84;7280188;19;153467;-57
2022/10/08 00:17:19;;;;;;;;;;;;;;;21.79;56.39;101629.97;7281086;19;152968;-57
2022/10/08 00:19:46;;;;;;;;;;;;;;;21.78;56.47;101635.88;7276249;19;154167;-57
2022/10/08 00:22:12;;;;;;;;;;;;;;;21.78;56.72;101630.25;7283888;19;152414;-57
2022/10/08 00:24:39;;;;;;;;;;;;;;;21.78;56.23;101641.50;7280202;19;154229;-57
2022/10/08 00:27:05;;;;;;;;;;;;;;;21.77;56.33;101639.81;7282323;19;152271;-58
2022/10/08 00:29:32;;;;;;;;;;;;;;;21.77;56.40;101642.63;7280735;19;153454;-57
2022/10/08 00:31:59;;;;;;;;;;;;;;;21.76;56.36;101646.63;7280642;19;153400;-57
2022/10/08 00:34:26;;;;;;;;;;;;;;;21.75;56.57;101651.41;7279866;19;152694;-57
2022/10/08 00:36:53;;;;;;;;;;;;;;;21.73;56.44;101648.88;7279444;19;153572;-57
2022/10/08 00:39:21;;;;;;;;;;;;;;;21.73;56.43;101650.84;7278936;19;154048;-57
2022/10/08 00:41:58;;;;;;;;;;;;;;;21.71;56.89;101651.13;7279496;19;152234;-58
2022/10/08 00:44:42;;;;;;;;;;;;;;;21.71;56.59;101667.19;7284427;19;152406;-58
2022/10/08 00:47:15;;;;;;;;;;;;;;;21.70;56.48;101671.97;7280807;19;151964;-58
2022/10/08 00:49:41;;;;;;;;;;;;;;;21.67;56.61;101664.13;7278731;19;153569;-58
2022/10/08 00:52:08;;;;;;;;;;;;;;;21.68;56.50;101676.22;7278667;19;154048;-58
2022/10/08 00:54:35;;;;;;;;;;;;;;;21.67;56.55;101675.38;7278779;19;152109;-58
2022/10/08 00:57:01;;;;;;;;;;;;;;;21.66;56.91;101678.50;7279874;19;154060;-58
2022/10/08 00:59:30;;;;;;;;;;;;;;;21.65;56.59;101686.09;7275063;19;153550;-58
2022/10/08 01:01:57;;;;;;;;;;;;;;;21.64;56.75;101687.22;7281181;19;152024;-58
2022/10/08 01:04:24;;;;;;;;;;;;;;;21.63;56.75;101682.72;7279763;19;153528;-58
2022/10/08 01:07:04;;;;;;;;;;;;;;;21.63;57.07;101685.53;7285825;19;154418;-57
2022/10/08 01:09:33;;;;;;;;;;;;;;;21.62;57.02;101683.06;7279679;19;152029;-57
2022/10/08 01:12:16;;;;;;;;;;;;;;;21.61;56.99;101684.19;7278004;19;154558;-58
2022/10/08 01:14:52;;;;;;;;;;;;;;;21.59;56.81;101684.47;7279064;19;151987;-57
2022/10/08 01:17:25;;;;;;;;;;;;;;;21.58;57.04;101685.59;7281601;19;152888;-57
2022/10/08 01:20:04;;;;;;;;;;;;;;;21.58;57.09;101687.56;7275259;19;153538;-57
2022/10/08 01:22:30;;;;;;;;;;;;;;;21.57;56.88;101685.91;7276163;19;152115;-57
2022/10/08 01:27:52;;;;;;;;;;;;;;;21.54;56.90;101687.34;7284792;19;153558;-58
2022/10/08 01:30:19;;;;;;;;;;;;;;;21.54;56.95;101689.31;7279867;19;152763;-57
2022/10/08 01:32:50;;;;;;;;;;;;;;;21.53;56.77;101696.09;7278894;19;154135;-57
2022/10/08 01:35:19;;;;;;;;;;;;;;;21.52;56.77;101692.44;7283901;19;152073;-58
2022/10/08 01:37:47;;;;;;;;;;;;;;;21.51;56.82;101699.19;7286140;19;153628;-57
2022/10/08 01:40:16;;;;;;;;;;;;;;;21.51;56.91;101702.00;7285573;19;153654;-58
2022/10/08 01:42:43;;;;;;;;;;;;;;;21.50;56.46;101697.50;7280145;19;153009;-58
2022/10/08 01:45:14;;;;;;;;;;;;;;;21.49;56.96;101700.59;7285561;19;153354;-57
2022/10/08 01:47:42;;;;;;;;;;;;;;;21.49;56.47;101700.59;7285147;19;153337;-57
2022/10/08 01:50:11;;;;;;;;;;;;;;;21.47;56.68;101706.53;7293032;19;152301;-58
2022/10/08 01:53:04;;;;;;;;;;;;;;;21.47;56.73;101702.88;7285462;19;154539;-58
2022/10/08 01:55:36;;;;;;;;;;;;;;;21.46;56.84;101702.03;7284620;19;152511;-58
2022/10/08 01:58:05;;;;;;;;;;;;;;;21.44;56.64;101707.09;7285520;19;152856;-58
2022/10/08 02:00:34;;;;;;;;;;;;;;;21.44;56.43;101709.91;7283072;19;154309;-58
2022/10/08 02:03:01;;;;;;;;;;;;;;;21.43;56.84;101704.63;7283821;19;152860;-58
2022/10/08 02:05:30;;;;;;;;;;;;;;;21.43;56.49;101704.63;7284152;19;153396;-58
2022/10/08 02:07:57;;;;;;;;;;;;;;;21.40;56.77;101703.22;7284830;19;153805;-58
2022/10/08 02:10:25;;;;;;;;;;;;;;;21.41;56.49;101712.50;7285924;19;152349;-58
2022/10/08 02:12:51;;;;;;;;;;;;;;;21.39;56.68;101724.06;7290794;19;152510;-58
2022/10/08 02:15:23;;;;;;;;;;;;;;;21.39;56.66;101717.59;7284203;19;153809;-58
2022/10/08 02:18:05;;;;;;;;;;;;;;;21.38;56.52;101721.53;7285084;19;153590;-58
2022/10/08 02:20:35;;;;;;;;;;;;;;;21.37;56.57;101726.31;7282876;19;153487;-58
2022/10/08 02:23:09;;;;;;;;;;;;;;;21.36;56.82;101720.97;7280334;19;155417;-58
2022/10/08 02:25:40;;;;;;;;;;;;;;;21.35;56.77;101720.13;7285547;19;152844;-58
2022/10/08 02:28:13;;;;;;;;;;;;;;;21.34;56.49;101721.28;7280336;19;154350;-58
2022/10/08 02:30:45;;;;;;;;;;;;;;;21.32;56.71;101723.53;7281994;19;152791;-58
2022/10/08 02:33:20;;;;;;;;;;;;;;;21.31;56.52;101716.22;7283712;19;154163;-58
2022/10/08 02:35:49;;;;;;;;;;;;;;;21.29;56.96;101719.38;7289954;19;153402;-58
2022/10/08 02:38:19;;;;;;;;;;;;;;;21.29;56.78;101732.56;7284754;19;152865;-58
2022/10/08 02:40:49;;;;;;;;;;;;;;;21.28;56.82;101737.34;7282914;19;155208;-58
2022/10/08 02:43:19;;;;;;;;;;;;;;;21.28;56.84;101733.69;7280606;19;152070;-58
2022/10/08 02:45:56;;;;;;;;;;;;;;;21.27;56.70;101732.00;7282351;19;154101;-58
2022/10/08 02:48:28;;;;;;;;;;;;;;;21.25;56.70;101731.50;7284457;19;154520;-58
2022/10/08 02:50:56;;;;;;;;;;;;;;;21.24;56.88;101735.44;7283416;19;152805;-58
2022/10/08 02:53:24;;;;;;;;;;;;;;;21.24;57.20;101741.88;7284183;19;152983;-58
2022/10/08 02:56:09;;;;;;;;;;;;;;;21.23;57.09;101748.63;7282531;19;154753;-58
2022/10/08 02:58:36;;;;;;;;;;;;;;;21.22;57.01;101740.50;7291447;19;152677;-58
2022/10/08 03:01:07;;;;;;;;;;;;;;;21.22;57.05;101746.09;7280100;19;154348;-58
2022/10/08 03:03:36;;;;;;;;;;;;;;;21.21;57.17;101750.06;7285426;19;152873;-57
2022/10/08 03:06:05;;;;;;;;;;;;;;;21.20;56.94;101742.78;7279167;19;153288;-57
2022/10/08 03:08:35;;;;;;;;;;;;;;;21.19;56.97;101744.75;7282928;19;154353;-57
2022/10/08 03:11:02;;;;;;;;;;;;;;;21.19;56.79;101746.72;7284608;19;151792;-57
2022/10/08 03:13:32;;;;;;;;;;;;;;;21.17;57.23;101751.75;7284385;19;153440;-57
2022/10/08 03:15:59;;;;;;;;;;;;;;;21.17;56.75;101752.59;7281391;19;154085;-57
2022/10/08 03:18:26;;;;;;;;;;;;;;;21.16;57.09;101744.50;7283209;19;152342;-57
2022/10/08 03:20:53;;;;;;;;;;;;;;;21.15;57.18;101745.63;7288274;19;153185;-58
2022/10/08 03:23:20;;;;;;;;;;;;;;;21.14;56.93;101747.59;7283863;19;152763;-58
2022/10/08 03:25:46;;;;;;;;;;;;;;;21.14;57.11;101747.59;7281500;19;153081;-58
2022/10/08 03:28:13;;;;;;;;;;;;;;;21.14;57.05;101755.19;7281837;19;153464;-58
2022/10/08 03:30:40;;;;;;;;;;;;;;;21.13;56.69;101761.91;7283461;19;152068;-58
2022/10/08 03:33:06;;;;;;;;;;;;;;;21.11;56.89;101767.81;7283166;19;153427;-58
2022/10/08 03:35:33;;;;;;;;;;;;;;;21.10;56.90;101763.31;7280964;19;153936;-58
2022/10/08 03:38:00;;;;;;;;;;;;;;;21.10;56.77;101770.91;7284193;19;151887;-58
2022/10/08 03:40:27;;;;;;;;;;;;;;;21.08;56.96;101768.38;7292418;19;153498;-58
2022/10/08 03:42:53;;;;;;;;;;;;;;;21.08;56.60;101778.78;7281647;19;152229;-58
2022/10/08 03:45:20;;;;;;;;;;;;;;;21.06;56.91;101776.28;7285704;19;154131;-58
2022/10/08 03:47:51;;;;;;;;;;;;;;;21.05;56.87;101776.56;7284425;19;153263;-58
2022/10/08 03:50:18;;;;;;;;;;;;;;;21.04;56.72;101786.13;7284993;19;152055;-58
2022/10/08 03:52:45;;;;;;;;;;;;;;;21.02;56.46;101785.59;7285440;19;153062;-58
2022/10/08 03:55:12;;;;;;;;;;;;;;;21.02;56.43;101775.19;7283991;19;153356;-58
2022/10/08 03:57:39;;;;;;;;;;;;;;;21.01;56.55;101783.91;7281336;19;152569;-58
2022/10/08 04:00:06;;;;;;;;;;;;;;;21.01;56.80;101781.09;7284543;19;154833;-59
2022/10/08 04:02:33;;;;;;;;;;;;;;;20.98;56.83;101790.97;7288183;19;153793;-59
2022/10/08 04:05:00;;;;;;;;;;;;;;;20.98;56.67;101798.53;7284055;19;153124;-59
2022/10/08 04:07:27;;;;;;;;;;;;;;;20.97;56.55;101806.13;7282175;19;153457;-57
2022/10/08 04:09:54;;;;;;;;;;;;;;;20.95;56.38;101805.56;7281280;19;152853;-57
2022/10/08 04:12:20;;;;;;;;;;;;;;;20.95;56.38;101816.81;7282224;19;153701;-57
2022/10/08 04:14:47;;;;;;;;;;;;;;;20.95;56.62;101825.22;7279475;19;153711;-57
2022/10/08 04:17:14;;;;;;;;;;;;;;;20.93;56.87;101832.28;7281340;19;153751;-57
2022/10/08 04:19:40;;;;;;;;;;;;;;;20.92;56.89;101827.78;7280697;19;153806;-58
2022/10/08 04:22:07;;;;;;;;;;;;;;;20.92;56.72;101841.84;7275833;19;154727;-57
2022/10/08 04:24:33;;;;;;;;;;;;;;;20.90;56.68;101836.50;7287120;19;152327;-58
2022/10/08 04:27:00;;;;;;;;;;;;;;;20.90;56.68;101839.31;7280249;19;153383;-58
2022/10/08 04:29:26;;;;;;;;;;;;;;;20.89;56.75;101837.66;7278276;19;151925;-58
2022/10/08 04:31:54;;;;;;;;;;;;;;;20.88;56.83;101843.53;7281981;19;154057;-58
2022/10/08 04:34:21;;;;;;;;;;;;;;;20.88;56.94;101849.16;7278584;19;153913;-57
2022/10/08 04:36:47;;;;;;;;;;;;;;;20.87;56.52;101856.75;7281661;19;151943;-57
2022/10/08 04:39:14;;;;;;;;;;;;;;;20.86;56.81;101861.53;7281399;19;153227;-58
2022/10/08 04:41:41;;;;;;;;;;;;;;;20.86;56.58;101863.50;7278909;19;153717;-58
2022/10/08 04:44:07;;;;;;;;;;;;;;;20.84;56.55;101872.22;7279160;19;152358;-57
2022/10/08 04:46:34;;;;;;;;;;;;;;;20.84;56.90;101865.75;7287130;19;153903;-57
2022/10/08 04:49:01;;;;;;;;;;;;;;;20.83;56.71;101862.09;7280148;19;152033;-57
2022/10/08 04:51:27;;;;;;;;;;;;;;;20.82;56.49;101863.22;7280132;19;152854;-57
2022/10/08 04:53:55;;;;;;;;;;;;;;;20.81;56.66;101872.78;7280239;19;153476;-57
2022/10/08 04:56:23;;;;;;;;;;;;;;;20.81;56.75;101880.34;7280819;19;151931;-57
2022/10/08 04:58:50;;;;;;;;;;;;;;;20.80;56.66;101885.13;7278997;19;153651;-57
2022/10/08 05:01:17;;;;;;;;;;;;;;;20.80;56.53;101884.31;7278117;19;154634;-57
2022/10/08 05:03:45;;;;;;;;;;;;;;;20.79;56.60;101891.06;7279981;19;152277;-57
2022/10/08 05:06:13;;;;;;;;;;;;;;;20.79;56.89;101891.91;7280094;19;152806;-57
2022/10/08 05:08:40;;;;;;;;;;;;;;;20.78;56.83;101909.88;7287897;19;153858;-57
2022/10/08 05:11:07;;;;;;;;;;;;;;;20.76;56.89;101903.69;7285656;19;153988;-57
2022/10/08 05:13:34;;;;;;;;;;;;;;;20.76;56.48;101906.50;7286006;19;155920;-57
2022/10/08 05:16:06;;;;;;;;;;;;;;;20.75;56.72;101916.06;7284589;19;153414;-58
2022/10/08 05:18:34;;;;;;;;;;;;;;;20.75;56.80;101909.63;7288426;19;152714;-57
2022/10/08 05:21:10;;;;;;;;;;;;;;;20.74;56.75;101905.97;7284182;19;153712;-57
2022/10/08 05:23:37;;;;;;;;;;;;;;;20.73;56.63;101909.03;7287148;19;153222;-57
2022/10/08 05:26:14;;;;;;;;;;;;;;;20.72;56.83;101911.00;7286160;19;153583;-57
2022/10/08 05:28:41;;;;;;;;;;;;;;;20.72;56.36;101916.63;7285498;19;154253;-58
2022/10/08 05:31:08;;;;;;;;;;;;;;;20.71;56.44;101914.97;7293964;19;152207;-57
2022/10/08 05:33:35;;;;;;;;;;;;;;;20.70;56.81;101918.06;7286189;19;154309;-58
2022/10/08 05:36:03;;;;;;;;;;;;;;;20.69;56.48;101928.44;7285404;19;152608;-57
2022/10/08 05:38:29;;;;;;;;;;;;;;;20.69;56.79;101927.59;7287577;19;152865;-57
2022/10/08 05:41:07;;;;;;;;;;;;;;;20.69;56.46;101936.03;7284256;19;153764;-58
2022/10/08 05:43:34;;;;;;;;;;;;;;;20.68;56.85;101937.16;7286503;19;152108;-58
2022/10/08 05:46:00;;;;;;;;;;;;;;;20.67;56.88;101946.72;7285336;19;152705;-58
2022/10/08 05:48:27;;;;;;;;;;;;;;;20.65;56.65;101952.59;7286267;19;153180;-58
2022/10/08 05:50:54;;;;;;;;;;;;;;;20.65;56.88;101949.81;7292043;19;152311;-58
2022/10/08 05:53:20;;;;;;;;;;;;;;;20.64;56.39;101959.34;7286072;19;154415;-58
2022/10/08 05:55:47;;;;;;;;;;;;;;;20.63;56.68;101968.88;7284094;19;153388;-58
2022/10/08 05:58:14;;;;;;;;;;;;;;;20.63;56.61;101963.28;7284482;19;153268;-57
2022/10/08 06:00:40;;;;;;;;;;;;;;;20.61;56.59;101971.16;7284219;19;154102;-58
2022/10/08 06:03:07;;;;;;;;;;;;;;;20.61;56.39;101973.97;7283634;19;151874;-58
2022/10/08 06:05:34;;;;;;;;;;;;;;;20.60;56.53;101972.28;7285412;19;152909;-58
2022/10/08 06:08:00;;;;;;;;;;;;;;;20.59;56.79;101987.44;7284378;19;154243;-58
2022/10/08 06:10:28;;;;;;;;;;;;;;;20.57;56.42;101981.28;7286087;19;151848;-59
2022/10/08 06:12:55;;;;;;;;;;;;;;;20.56;56.58;101979.59;7290835;19;152752;-59
2022/10/08 06:15:22;;;;;;;;;;;;;;;20.56;56.43;101979.59;7284323;19;152413;-59
2022/10/08 06:17:49;;;;;;;;;;;;;;;20.55;56.65;101989.13;7284922;19;153195;-59
2022/10/08 06:20:16;;;;;;;;;;;;;;;20.54;56.39;101987.44;7281048;19;154126;-59
2022/10/08 06:22:42;;;;;;;;;;;;;;;20.54;56.58;101986.59;7284085;19;151996;-59
2022/10/08 06:25:10;;;;;;;;;;;;;;;20.53;56.62;101993.34;7285081;19;152756;-59
2022/10/08 06:27:36;;;;;;;;;;;;;;;20.52;56.75;101992.50;7283405;19;153307;-58
2022/10/08 06:30:03;;;;;;;;;;;;;;;20.51;56.58;101993.63;7281659;19;152593;-58
2022/10/08 06:32:30;;;;;;;;;;;;;;;20.51;56.43;102007.66;7284003;19;152329;-58
2022/10/08 06:34:57;;;;;;;;;;;;;;;20.50;56.85;102002.31;7289884;19;153689;-58
2022/10/08 06:37:24;;;;;;;;;;;;;;;20.49;56.55;101997.84;7284538;19;153515;-57
2022/10/08 06:39:50;;;;;;;;;;;;;;;20.47;56.68;102006.56;7282590;19;154548;-58
2022/10/08 06:42:17;;;;;;;;;;;;;;;20.47;56.79;102014.97;7281974;19;151992;-57
2022/10/08 06:44:43;;;;;;;;;;;;;;;20.46;56.80;102015.25;7282981;19;153172;-57
2022/10/08 06:47:10;;;;;;;;;;;;;;;20.46;56.53;102016.09;7284061;19;154918;-57
2022/10/08 06:49:38;;;;;;;;;;;;;;;20.46;56.77;102029.28;7282463;19;152368;-57
2022/10/08 06:52:05;;;;;;;;;;;;;;;20.45;56.55;102027.59;7284201;19;153456;-57
2022/10/08 06:54:32;;;;;;;;;;;;;;;20.44;56.80;102029.59;7282780;19;154238;-57
2022/10/08 06:56:58;;;;;;;;;;;;;;;20.44;56.92;102038.00;7289318;19;152374;-58
2022/10/08 06:59:27;;;;;;;;;;;;;;;20.43;56.83;102047.53;7281139;19;153590;-57
2022/10/08 07:01:54;;;;;;;;;;;;;;;20.43;56.54;102047.53;7283489;19;152459;-57
2022/10/08 07:04:21;;;;;;;;;;;;;;;20.42;56.43;102051.47;7283300;19;152674;-57
2022/10/08 07:06:47;;;;;;;;;;;;;;;20.40;56.79;102060.16;7282737;19;154890;-58
2022/10/08 07:09:14;;;;;;;;;;;;;;;20.40;56.65;102053.69;7283233;19;152808;-58
2022/10/08 07:11:41;;;;;;;;;;;;;;;20.39;56.52;102061.31;7282838;19;154664;-59
2022/10/08 07:14:07;;;;;;;;;;;;;;;20.39;56.88;102066.06;7280985;19;153829;-59
2022/10/08 07:16:34;;;;;;;;;;;;;;;20.38;56.57;102067.19;7282132;19;152480;-59
2022/10/08 07:19:01;;;;;;;;;;;;;;;20.38;56.45;102075.63;7289932;19;152812;-58
2022/10/08 07:21:28;;;;;;;;;;;;;;;20.37;56.41;102080.38;7283034;19;151886;-59
2022/10/08 07:23:55;;;;;;;;;;;;;;;20.36;56.38;102075.03;7280003;19;152785;-58
2022/10/08 07:26:23;;;;;;;;;;;;;;;20.36;56.57;102086.25;7282258;19;153596;-58
2022/10/08 07:28:52;;;;;;;;;;;;;;;20.34;56.69;102083.75;7283062;19;153453;-58
2022/10/08 07:31:20;;;;;;;;;;;;;;;20.34;56.38;102089.38;7281233;19;154270;-57
2022/10/08 07:33:47;;;;;;;;;;;;;;;20.33;56.39;102093.28;7282152;19;154315;-57
2022/10/08 07:36:15;;;;;;;;;;;;;;;20.34;56.75;102099.75;7282589;19;152336;-57
2022/10/08 07:38:43;;;;;;;;;;;;;;;20.33;56.77;102100.88;7283187;19;153538;-57
2022/10/08 07:41:10;;;;;;;;;;;;;;;20.32;56.49;102101.97;7287839;19;152072;-58
2022/10/08 07:43:41;;;;;;;;;;;;;;;20.31;56.33;102105.91;7279580;19;153535;-58
2022/10/08 07:46:09;;;;;;;;;;;;;;;20.30;56.33;102107.91;7280063;19;154886;-58
2022/10/08 07:48:36;;;;;;;;;;;;;;;20.31;56.65;102117.13;7284370;19;151868;-58
2022/10/08 07:51:09;;;;;;;;;;;;;;;20.30;56.28;102116.31;7280570;19;153644;-58
2022/10/08 07:53:37;;;;;;;;;;;;;;;20.29;56.65;102128.63;7281803;19;154137;-58
2022/10/08 07:56:04;;;;;;;;;;;;;;;20.29;56.43;102127.78;7282839;19;152704;-58
2022/10/08 07:58:31;;;;;;;;;;;;;;;20.27;56.69;102128.03;7282261;19;153616;-58
2022/10/08 08:00:58;;;;;;;;;;;;;;;20.27;56.35;102124.38;7286048;19;153417;-58
2022/10/08 08:03:25;;;;;;;;;;;;;;;20.26;56.83;102128.34;7280619;19;153842;-59
2022/10/08 08:05:53;;;;;;;;;;;;;;;20.27;56.69;102138.41;7280578;19;153873;-58
2022/10/08 08:08:23;;;;;;;;;;;;;;;20.26;56.84;102131.97;7281624;19;152805;-58
2022/10/08 08:10:57;;;;;;;;;;;;;;;20.29;56.81;102137.03;7282757;19;152687;-58
2022/10/08 08:13:24;;;;;;;;;;;;;;;20.27;56.48;102142.06;7281011;19;153322;-58
2022/10/08 08:15:58;;;;;;;;;;;;;;;20.27;56.33;102144.03;7280758;19;152122;-57
2022/10/08 08:18:29;;;;;;;;;;;;;;;20.25;56.53;102151.91;7281741;19;152526;-58
2022/10/08 08:20:57;;;;;;;;;;;;;;;20.24;55.96;102150.22;7276240;19;153927;-57
2022/10/08 08:23:29;;;;;;;;;;;;;;;20.23;55.77;102142.91;7269214;19;155057;-57
2022/10/08 08:25:58;;;;;;;;;;;;;;;20.21;55.73;102153.59;7274556;19;154183;-57
2022/10/08 08:28:27;;;;;;;;;;;;;;;20.19;55.77;102153.00;7281469;19;152427;-58
2022/10/08 08:31:04;;;;;;;;;;;;;;;20.18;55.58;102154.97;7280657;19;152313;-57
2022/10/08 08:33:31;;;;;;;;;;;;;;;20.17;55.48;102158.06;7280487;19;153439;-57
2022/10/08 08:35:58;;;;;;;;;;;;;;;20.16;55.29;102165.63;7279417;19;153323;-57
2022/10/08 08:38:25;;;;;;;;;;;;;;;20.15;55.54;102168.72;7281589;19;151834;-57
2022/10/08 08:40:56;;;;;;;;;;;;;;;20.15;55.63;102177.13;7279929;19;153648;-57
2022/10/08 08:43:24;;;;;;;;;;;;;;;20.14;55.54;102173.47;7278557;19;151990;-57
2022/10/08 08:45:51;;;;;;;;;;;;;;;20.15;55.47;102177.13;7285897;19;153492;-57
2022/10/08 08:48:27;;;;;;;;;;;;;;;20.13;55.69;102179.34;7281355;19;152072;-57
2022/10/08 08:50:56;;;;;;;;;;;;;;;20.08;55.93;102179.38;7278345;19;153482;-57
2022/10/08 08:53:23;;;;;;;;;;;;;;;19.93;50.95;102182.94;7280180;19;154373;-58
2022/10/08 08:55:55;;;;;;;;;;;;;;;19.69;50.04;102188.16;7281985;19;152414;-59
2022/10/08 08:58:33;;;;;;;;;;;;;;;19.60;50.42;102181.38;7281034;19;153226;-58
2022/10/08 09:01:20;;;;;;;;;;;;;;;19.65;51.47;102191.78;7276924;19;154309;-58
2022/10/08 09:03:49;;;;;;;;;;;;;;;19.67;52.17;102187.56;7277754;19;152517;-58
2022/10/08 09:06:18;;;;;;;;;;;;;;;19.71;52.86;102194.34;7279887;19;153908;-58
2022/10/08 09:09:04;;;;;;;;;;;;;;;19.75;53.37;102189.88;7285942;19;153569;-58
2022/10/08 09:11:30;;;;;;;;;;;;;;;19.82;53.64;102198.03;7279574;19;153775;-58
2022/10/08 09:14:20;;;;;;;;;;;;;;;19.89;53.74;102196.69;7276813;19;153111;-58
2022/10/08 09:16:48;;;;;;;;;;;;;;;19.93;53.76;102199.78;7276699;19;153683;-58
2022/10/08 09:19:14;;;;;;;;;;;;;;;20.01;54.14;102195.59;7278718;19;153020;-58
2022/10/08 09:21:41;;;;;;;;;;;;;;;20.06;54.01;102209.66;7277885;19;154699;-58
2022/10/08 09:24:08;;;;;;;;;;;;;;;20.10;53.96;102206.00;7276059;19;153815;-58
2022/10/08 09:26:35;;;;;;;;;;;;;;;20.16;54.06;102209.69;7274743;19;153034;-58
2022/10/08 09:29:03;;;;;;;;;;;;;;;20.19;54.03;102207.16;7277724;19;153897;-58
2022/10/08 09:31:36;;;;;;;;;;;;;;;20.23;54.18;102202.69;7285843;19;153528;-56
2022/10/08 09:34:09;;;;;;;;;;;;;;;20.29;54.22;102209.16;7239607;19;156654;-57
2022/10/08 09:36:40;;;;;;;;;;;;;;;20.32;54.01;102203.88;7249876;19;153820;-57
2022/10/08 09:39:18;;;;;;;;;;;;;;;20.37;53.97;102195.47;7272193;19;153451;-57
2022/10/08 09:42:07;;;;;;;;;;;;;;;20.41;54.18;102195.75;7270780;19;154460;-57
2022/10/08 09:44:58;;;;;;;;;;;;;;;20.45;53.91;102194.06;7270715;19;153016;-57
2022/10/08 09:47:25;;;;;;;;;;;;;;;20.50;53.75;102207.28;7271895;19;153080;-57
2022/10/08 09:50:04;;;;;;;;;;;;;;;20.52;53.98;102205.06;7269359;19;152739;-57
2022/10/08 09:52:33;;;;;;;;;;;;;;;20.55;53.80;102198.88;7279958;19;152355;-60
2022/10/08 09:55:02;;;;;;;;;;;;;;;20.58;54.05;102192.72;7276121;19;153331;-57
2022/10/08 09:57:29;;;;;;;;;;;;;;;20.62;54.09;102203.09;7283531;19;152682;-57
2022/10/08 09:59:58;;;;;;;;;;;;;;;20.64;53.45;102198.03;7282799;19;153588;-57
2022/10/08 10:02:30;;;;;;;;;;;;;;;20.67;53.40;102202.28;7285033;19;153466;-59
2022/10/08 10:04:58;;;;;;;;;;;;;;;20.70;53.71;102199.75;7279471;19;153113;-60
2022/10/08 10:07:34;;;;;;;;;;;;;;;20.78;53.21;102203.97;7282731;19;153596;-59
2022/10/08 10:10:02;;;;;;;;;;;;;;;20.76;53.13;102198.59;7281900;19;154038;-59
2022/10/08 10:12:35;;;;;;;;;;;;;;;20.78;53.43;102201.16;7284886;19;152486;-59
2022/10/08 10:15:14;;;;;;;;;;;;;;;20.81;53.29;102206.19;7289445;19;153530;-59
2022/10/08 10:17:48;;;;;;;;;;;;;;;20.83;53.20;102212.38;7280635;19;154811;-59
2022/10/08 10:20:21;;;;;;;;;;;;;;;20.84;53.08;102203.69;7281677;19;153750;-59
2022/10/08 10:23:07;;;;;;;;;;;;;;;20.88;53.28;102203.13;7283694;19;153685;-59
2022/10/08 10:25:40;;;;;;;;;;;;;;;20.90;52.91;102203.66;7282194;19;152750;-59
2022/10/08 10:28:13;;;;;;;;;;;;;;;20.92;52.69;102201.44;7280559;19;154108;-59
2022/10/08 10:31:00;;;;;;;;;;;;;;;20.95;53.35;102201.72;7283797;19;153323;-58
2022/10/08 10:33:35;;;;;;;;;;;;;;;20.99;52.59;102201.97;7286151;19;151988;-60
2022/10/08 10:36:06;;;;;;;;;;;;;;;21.02;52.62;102199.47;7280401;19;153297;-58
2022/10/08 10:38:36;;;;;;;;;;;;;;;21.08;53.11;102203.09;7288896;19;154220;-59
2022/10/08 10:41:27;;;;;;;;;;;;;;;21.10;53.18;102196.09;7284803;19;153574;-59
2022/10/08 10:43:59;;;;;;;;;;;;;;;21.14;53.50;102193.59;7281853;19;155834;-57
2022/10/08 10:46:50;;;;;;;;;;;;;;;21.15;53.41;102204.56;7284402;19;152777;-59
2022/10/08 10:49:38;;;;;;;;;;;;;;;21.13;51.46;102203.13;7281026;19;152542;-60
2022/10/08 10:52:22;;;;;;;;;;;;;;;21.04;49.50;102207.59;7282399;19;154415;-60
2022/10/08 10:55:02;;;;;;;;;;;;;;;21.03;48.83;102211.56;7283843;19;152674;-57
2022/10/08 10:57:38;;;;;;;;;;;;;;;21.02;47.78;102201.44;7283268;19;152832;-60
2022/10/08 11:00:08;;;;;;;;;;;;;;;21.01;48.58;102208.19;7281943;19;155052;-59
2022/10/08 11:02:35;;;;;;;;;;;;;;;20.90;46.21;102207.31;7291447;19;152550;-60
2022/10/08 11:05:20;;;;;;;;;;;;;;;20.83;46.02;102203.97;7279177;19;153865;-60
2022/10/08 11:07:53;;;;;;;;;;;;;;;20.85;47.28;102201.69;7282369;19;152405;-57
2022/10/08 11:10:34;;;;;;;;;;;;;;;20.83;46.17;102204.81;7284158;19;152861;-59
2022/10/08 11:13:06;;;;;;;;;;;;;;;20.87;48.08;102199.47;7280929;19;152374;-59
2022/10/08 11:15:56;;;;;;;;;;;;;;;20.91;48.55;102199.75;7283480;19;152046;-58
2022/10/08 11:18:32;;;;;;;;;;;;;;;20.94;48.75;102205.63;7280920;19;153340;-58
2022/10/08 11:21:05;;;;;;;;;;;;;;;20.95;49.27;102206.47;7279439;19;154510;-60
2022/10/08 11:23:31;;;;;;;;;;;;;;;20.98;49.32;102200.31;7282057;19;155071;-60
2022/10/08 11:26:01;;;;;;;;;;;;;;;21.02;49.23;102204.25;7287142;19;153050;-60
2022/10/08 11:28:50;;;;;;;;;;;;;;;21.04;49.10;102211.25;7279458;19;152442;-58
2022/10/08 11:31:17;;;;;;;;;;;;;;;21.05;49.25;102200.88;7282829;19;153182;-60
2022/10/08 11:33:44;;;;;;;;;;;;;;;21.07;49.35;102209.88;7283836;19;153425;-60
2022/10/08 11:36:11;;;;;;;;;;;;;;;21.11;49.17;102216.63;7283396;19;152291;-60
2022/10/08 11:38:43;;;;;;;;;;;;;;;21.12;49.24;102210.69;7283057;19;153827;-60
2022/10/08 11:41:09;;;;;;;;;;;;;;;21.15;49.73;102209.34;7278198;19;153971;-60
2022/10/08 11:43:38;;;;;;;;;;;;;;;21.16;49.59;102206.25;7281690;19;152507;-60
2022/10/08 11:46:33;;;;;;;;;;;;;;;21.18;49.40;102205.94;7281594;19;152802;-60
2022/10/08 11:49:00;;;;;;;;;;;;;;;21.20;49.33;102201.75;7286530;19;153219;-60
2022/10/08 11:51:32;;;;;;;;;;;;;;;21.20;49.95;102201.75;7282639;19;153396;-60
2022/10/08 11:54:04;;;;;;;;;;;;;;;21.21;49.70;102211.03;7280371;19;154348;-60
2022/10/08 11:56:32;;;;;;;;;;;;;;;21.23;49.81;102214.38;7282779;19;152908;-60
2022/10/08 11:59:03;;;;;;;;;;;;;;;21.24;49.50;102202.88;7281506;19;153158;-60
2022/10/08 12:01:29;;;;;;;;;;;;;;;21.24;49.65;102208.50;7280242;19;153498;-60
2022/10/08 12:04:15;;;;;;;;;;;;;;;21.25;49.78;102206.53;7278919;19;151805;-62
2022/10/08 12:06:44;;;;;;;;;;;;;;;21.24;50.28;102191.63;7282452;19;153355;-60
2022/10/08 12:09:23;;;;;;;;;;;;;;;21.23;50.06;102198.38;7287525;19;153916;-60
2022/10/08 12:12:11;;;;;;;;;;;;;;;21.24;49.95;102193.59;7281925;19;153568;-60
2022/10/08 12:14:44;;;;;;;;;;;;;;;21.25;50.23;102192.47;7279629;19;155143;-60
2022/10/08 12:17:11;;;;;;;;;;;;;;;21.26;49.81;102196.94;7279847;19;152115;-60
2022/10/08 12:19:37;;;;;;;;;;;;;;;21.23;49.96;102195.56;7279068;19;152904;-60
2022/10/08 12:22:24;;;;;;;;;;;;;;;21.26;49.82;102192.16;7279298;19;153836;-60
2022/10/08 12:24:52;;;;;;;;;;;;;;;21.30;50.00;102195.28;7277267;19;153580;-60
2022/10/08 12:27:18;;;;;;;;;;;;;;;21.30;49.90;102193.28;7279915;19;153417;-60
2022/10/08 12:29:59;;;;;;;;;;;;;;;21.30;50.15;102190.47;7275154;19;153304;-60
2022/10/08 12:32:30;;;;;;;;;;;;;;;21.31;49.82;102194.13;7288101;19;152433;-60
2022/10/08 12:34:57;;;;;;;;;;;;;;;21.32;49.88;102190.19;7278434;19;153911;-62
2022/10/08 12:37:27;;;;;;;;;;;;;;;21.32;49.96;102200.59;7281679;19;152016;-60
2022/10/08 12:39:54;;;;;;;;;;;;;;;21.33;49.55;102193.84;7248772;19;155355;-60
2022/10/08 12:42:31;;;;;;;;;;;;;;;21.32;49.88;102190.19;7270543;19;154944;-60
2022/10/08 12:45:16;;;;;;;;;;;;;;;21.32;49.76;102198.63;7277183;19;151651;-60